Time;durP1;ratioP1;P1;durP2;ratioP2;P2;SDS_P1;SDS_P2;PMS_P1;PMS_P2;Temp;Humidity;BMP_temperature;BMP_pressure;BME280_temperature;BME280_humidity;BME280_pressure;Samples;Min_cycle;Max_cycle;Signal;HPM_P1;HPM_P2
2021/09/19 00:01:35;;;;;;;;;;;14.50;99.90;;;;;;5002287;28;19926;-72
2021/09/19 00:04:02;;;;;;;;;;;14.40;99.90;;;;;;5003406;28;19929;-72
2021/09/19 00:06:30;;;;;;;;;;;14.40;99.90;;;;;;5005313;28;20337;-72
2021/09/19 00:08:56;;;;;;;;;;;14.40;99.90;;;;;;4998644;28;19925;-72
2021/09/19 00:11:23;;;;;;;;;;;14.30;99.90;;;;;;5001268;28;20016;-72
2021/09/19 00:13:50;;;;;;;;;;;14.30;99.90;;;;;;4998021;28;19925;-72
2021/09/19 00:16:17;;;;;;;;;;;14.30;99.90;;;;;;5002688;28;19953;-72
2021/09/19 00:18:44;;;;;;;;;;;14.30;99.90;;;;;;5007757;28;19932;-72
2021/09/19 00:21:11;;;;;;;;;;;14.20;99.90;;;;;;5008429;28;19926;-72
2021/09/19 00:23:39;;;;;;;;;;;14.20;99.90;;;;;;5002925;28;19971;-72
2021/09/19 00:26:06;;;;;;;;;;;14.20;99.90;;;;;;5001459;28;20028;-72
2021/09/19 00:28:32;;;;;;;;;;;14.20;99.90;;;;;;5005439;28;19932;-72
2021/09/19 00:30:59;;;;;;;;;;;14.10;99.90;;;;;;5003248;28;19926;-72
2021/09/19 00:33:26;;;;;;;;;;;14.10;99.90;;;;;;5008483;28;20020;-72
2021/09/19 00:35:52;;;;;;;;;;;14.10;99.90;;;;;;5001088;28;19932;-71
2021/09/19 00:38:19;;;;;;;;;;;14.10;99.90;;;;;;5011005;28;20388;-71
2021/09/19 00:40:47;;;;;;;;;;;14.10;99.90;;;;;;5003508;28;19925;-71
2021/09/19 00:43:14;;;;;;;;;;;14.10;99.90;;;;;;5004360;28;19933;-71
2021/09/19 00:45:40;;;;;;;;;;;14.00;99.90;;;;;;5000581;28;20396;-71
2021/09/19 00:48:07;;;;;;;;;;;14.00;99.90;;;;;;5002656;28;20369;-73
2021/09/19 00:50:34;;;;;;;;;;;14.00;99.90;;;;;;5009897;28;19938;-71
2021/09/19 00:53:01;;;;;;;;;;;14.00;99.90;;;;;;4999763;28;19931;-72
2021/09/19 00:55:27;;;;;;;;;;;14.00;99.90;;;;;;5004318;28;20288;-72
2021/09/19 00:57:56;;;;;;;;;;;14.00;99.90;;;;;;5003692;28;20037;-72
2021/09/19 01:00:25;;;;;;;;;;;13.90;99.90;;;;;;5010267;28;20011;-72
2021/09/19 01:02:53;;;;;;;;;;;13.90;99.90;;;;;;5010683;28;20287;-72
2021/09/19 01:05:20;;;;;;;;;;;13.80;99.90;;;;;;5000227;28;19936;-70
2021/09/19 01:07:47;;;;;;;;;;;13.80;99.90;;;;;;5010499;28;19969;-70
2021/09/19 01:10:15;;;;;;;;;;;13.70;99.90;;;;;;5008297;28;19927;-70
2021/09/19 01:12:42;;;;;;;;;;;13.70;99.90;;;;;;5006629;28;19926;-70
2021/09/19 01:15:11;;;;;;;;;;;13.70;99.90;;;;;;5002221;28;19930;-70
2021/09/19 01:17:38;;;;;;;;;;;13.70;99.90;;;;;;5009492;28;19926;-70
2021/09/19 01:20:06;;;;;;;;;;;13.70;99.90;;;;;;5008137;28;19938;-70
2021/09/19 01:22:33;;;;;;;;;;;13.70;99.90;;;;;;5012264;28;20388;-70
2021/09/19 01:25:02;;;;;;;;;;;13.70;99.90;;;;;;5004118;28;20380;-70
2021/09/19 01:27:28;;;;;;;;;;;13.60;99.90;;;;;;5003689;28;20375;-70
2021/09/19 01:29:55;;;;;;;;;;;13.60;99.90;;;;;;5004385;28;20020;-70
2021/09/19 01:32:22;;;;;;;;;;;13.50;99.90;;;;;;5009389;28;19925;-70
2021/09/19 01:34:49;;;;;;;;;;;13.50;99.90;;;;;;5007966;28;19935;-70
2021/09/19 01:37:16;;;;;;;;;;;13.40;99.90;;;;;;5011597;28;20382;-70
2021/09/19 01:39:42;;;;;;;;;;;13.40;99.90;;;;;;5007660;28;19933;-70
2021/09/19 01:42:11;;;;;;;;;;;13.40;99.90;;;;;;5004282;28;20351;-69
2021/09/19 01:44:37;;;;;;;;;;;13.40;99.90;;;;;;5005944;28;20013;-70
2021/09/19 01:47:04;;;;;;;;;;;13.40;99.90;;;;;;5003027;28;19936;-70
2021/09/19 01:49:31;;;;;;;;;;;13.40;99.90;;;;;;5009451;28;19925;-70
2021/09/19 01:51:58;;;;;;;;;;;13.40;99.90;;;;;;5003845;28;20392;-70
2021/09/19 01:54:25;;;;;;;;;;;13.40;99.90;;;;;;5007220;28;19933;-70
2021/09/19 01:56:52;;;;;;;;;;;13.40;99.90;;;;;;5011139;28;19936;-70
2021/09/19 01:59:20;;;;;;;;;;;13.40;99.90;;;;;;5010909;28;19931;-70
2021/09/19 02:01:46;;;;;;;;;;;13.40;99.90;;;;;;5006185;28;19932;-70
2021/09/19 02:04:13;;;;;;;;;;;13.40;99.90;;;;;;5012054;28;20008;-70
2021/09/19 02:06:40;;;;;;;;;;;13.40;99.90;;;;;;5004535;28;20016;-71
2021/09/19 02:09:06;;;;;;;;;;;13.30;99.90;;;;;;5015943;28;20028;-71
2021/09/19 02:11:33;;;;;;;;;;;13.30;99.90;;;;;;5004656;28;19925;-70
2021/09/19 02:14:00;;;;;;;;;;;13.30;99.90;;;;;;5015269;28;20003;-69
2021/09/19 02:16:28;;;;;;;;;;;13.30;99.90;;;;;;5004433;28;20307;-70
2021/09/19 02:18:56;;;;;;;;;;;13.30;99.90;;;;;;5003304;28;19969;-70
2021/09/19 02:21:23;;;;;;;;;;;13.30;99.90;;;;;;5007946;28;19926;-70
2021/09/19 02:23:49;;;;;;;;;;;13.20;99.90;;;;;;5011761;28;19933;-70
2021/09/19 02:26:16;;;;;;;;;;;13.20;99.90;;;;;;5007379;28;19925;-70
2021/09/19 02:28:43;;;;;;;;;;;13.20;99.90;;;;;;5003578;28;19925;-70
2021/09/19 02:31:09;;;;;;;;;;;13.20;99.90;;;;;;5002781;28;19929;-69
2021/09/19 02:33:37;;;;;;;;;;;13.20;99.90;;;;;;5004919;28;19972;-70
2021/09/19 02:36:07;;;;;;;;;;;13.20;99.90;;;;;;5002686;28;19932;-69
2021/09/19 02:38:34;;;;;;;;;;;13.20;99.90;;;;;;5003673;28;20026;-69
2021/09/19 02:41:00;;;;;;;;;;;13.10;99.90;;;;;;5007398;28;20025;-69
2021/09/19 02:43:27;;;;;;;;;;;13.10;99.90;;;;;;5001884;28;19932;-70
2021/09/19 02:45:54;;;;;;;;;;;13.10;99.90;;;;;;5000922;28;19934;-70
2021/09/19 02:48:20;;;;;;;;;;;13.10;99.90;;;;;;5002922;28;19925;-69
2021/09/19 02:50:49;;;;;;;;;;;13.10;99.90;;;;;;4997431;28;20307;-69
2021/09/19 02:53:15;;;;;;;;;;;13.10;99.90;;;;;;5003705;28;19930;-70
2021/09/19 02:55:42;;;;;;;;;;;13.10;99.90;;;;;;5008023;28;19936;-70
2021/09/19 02:58:09;;;;;;;;;;;13.10;99.90;;;;;;5000393;28;20025;-70
2021/09/19 03:00:36;;;;;;;;;;;13.10;99.90;;;;;;5002718;28;19933;-69
2021/09/19 03:03:02;;;;;;;;;;;13.10;99.90;;;;;;5015548;28;20338;-69
2021/09/19 03:05:29;;;;;;;;;;;13.10;99.90;;;;;;5004764;28;19951;-69
2021/09/19 03:07:57;;;;;;;;;;;13.10;99.90;;;;;;5002984;28;19936;-69
2021/09/19 03:10:24;;;;;;;;;;;13.10;99.90;;;;;;5008323;28;19934;-69
2021/09/19 03:12:50;;;;;;;;;;;13.10;99.90;;;;;;5010992;28;19925;-69
2021/09/19 03:15:17;;;;;;;;;;;13.10;99.90;;;;;;5002753;28;20016;-69
2021/09/19 03:17:44;;;;;;;;;;;13.10;99.90;;;;;;4999559;28;19925;-69
2021/09/19 03:20:12;;;;;;;;;;;13.10;99.90;;;;;;5004278;28;20008;-69
2021/09/19 03:22:39;;;;;;;;;;;13.10;99.90;;;;;;5009921;28;19931;-69
2021/09/19 03:25:08;;;;;;;;;;;13.10;99.90;;;;;;5003674;28;19930;-69
2021/09/19 03:27:35;;;;;;;;;;;13.00;99.90;;;;;;5004718;28;20402;-69
2021/09/19 03:30:01;;;;;;;;;;;13.00;99.90;;;;;;5001124;28;19953;-69
2021/09/19 03:32:28;;;;;;;;;;;13.00;99.90;;;;;;4999924;28;20384;-69
2021/09/19 03:34:55;;;;;;;;;;;13.00;99.90;;;;;;5002053;28;19948;-69
2021/09/19 03:37:21;;;;;;;;;;;13.00;99.90;;;;;;5005630;28;19931;-69
2021/09/19 03:39:48;;;;;;;;;;;13.00;99.90;;;;;;5003271;28;20299;-69
2021/09/19 03:42:16;;;;;;;;;;;13.00;99.90;;;;;;5007874;28;19925;-69
2021/09/19 03:44:43;;;;;;;;;;;12.90;99.90;;;;;;5007021;28;20408;-70
2021/09/19 03:47:10;;;;;;;;;;;12.90;99.90;;;;;;4999778;28;20443;-69
2021/09/19 03:49:36;;;;;;;;;;;12.80;99.90;;;;;;5001189;28;19977;-69
2021/09/19 03:52:03;;;;;;;;;;;12.80;99.90;;;;;;5002351;28;19925;-69
2021/09/19 03:54:30;;;;;;;;;;;12.80;99.90;;;;;;5004870;28;20307;-69
2021/09/19 03:56:57;;;;;;;;;;;12.80;99.90;;;;;;5002942;28;20405;-70
2021/09/19 03:59:25;;;;;;;;;;;12.70;99.90;;;;;;5006060;28;20012;-70
2021/09/19 04:01:51;;;;;;;;;;;12.70;99.90;;;;;;5005500;28;19929;-70
2021/09/19 04:04:18;;;;;;;;;;;12.70;99.90;;;;;;5004408;28;19932;-70
2021/09/19 04:06:45;;;;;;;;;;;12.70;99.90;;;;;;4997336;28;19960;-69
2021/09/19 04:09:11;;;;;;;;;;;12.70;99.90;;;;;;5006441;28;19978;-70
2021/09/19 04:11:38;;;;;;;;;;;12.60;99.90;;;;;;5012056;28;19926;-69
2021/09/19 04:14:05;;;;;;;;;;;12.60;99.90;;;;;;5008831;28;19925;-69
2021/09/19 04:16:33;;;;;;;;;;;12.60;99.90;;;;;;4999302;28;19925;-70
2021/09/19 04:19:01;;;;;;;;;;;12.60;99.90;;;;;;5006936;28;20000;-69
2021/09/19 04:21:30;;;;;;;;;;;12.60;99.90;;;;;;5002730;28;20029;-69
2021/09/19 04:23:57;;;;;;;;;;;12.50;99.90;;;;;;5002856;28;19944;-69
2021/09/19 04:26:23;;;;;;;;;;;12.50;99.90;;;;;;5002085;28;19936;-69
2021/09/19 04:28:52;;;;;;;;;;;12.50;99.90;;;;;;4999980;28;19925;-69
2021/09/19 04:31:18;;;;;;;;;;;12.40;99.90;;;;;;5006298;28;19925;-70
2021/09/19 04:33:47;;;;;;;;;;;12.40;99.90;;;;;;5000480;28;19932;-70
2021/09/19 04:36:14;;;;;;;;;;;12.40;99.90;;;;;;5009351;28;20018;-70
2021/09/19 04:38:41;;;;;;;;;;;12.40;99.90;;;;;;5000199;28;20388;-71
2021/09/19 04:41:07;;;;;;;;;;;12.40;99.90;;;;;;5004402;28;19930;-70
2021/09/19 04:43:34;;;;;;;;;;;12.30;99.90;;;;;;4998197;28;20349;-71
2021/09/19 04:46:01;;;;;;;;;;;12.30;99.90;;;;;;5007684;28;19926;-70
2021/09/19 04:48:27;;;;;;;;;;;12.30;99.90;;;;;;5003978;28;19926;-71
2021/09/19 04:50:55;;;;;;;;;;;12.30;99.90;;;;;;5006187;28;19925;-71
2021/09/19 04:53:22;;;;;;;;;;;12.30;99.90;;;;;;5007416;28;20237;-71
2021/09/19 04:55:49;;;;;;;;;;;12.20;99.90;;;;;;5007398;28;20280;-71
2021/09/19 04:58:15;;;;;;;;;;;12.20;99.90;;;;;;5000654;28;19974;-71
2021/09/19 05:00:42;;;;;;;;;;;12.20;99.90;;;;;;5002750;28;19955;-71
2021/09/19 05:03:09;;;;;;;;;;;12.20;99.90;;;;;;5010709;28;20016;-71
2021/09/19 05:05:35;;;;;;;;;;;12.20;99.90;;;;;;5005494;28;19932;-71
2021/09/19 05:08:04;;;;;;;;;;;12.20;99.90;;;;;;4997985;28;20020;-71
2021/09/19 05:10:30;;;;;;;;;;;12.20;99.90;;;;;;5002189;28;19934;-71
2021/09/19 05:12:57;;;;;;;;;;;12.10;99.90;;;;;;5003721;28;20034;-71
2021/09/19 05:15:24;;;;;;;;;;;12.20;99.90;;;;;;5004394;28;20287;-69
2021/09/19 05:17:50;;;;;;;;;;;12.10;99.90;;;;;;5001215;28;20528;-69
2021/09/19 05:20:17;;;;;;;;;;;12.10;99.90;;;;;;5008672;28;20316;-69
2021/09/19 05:22:44;;;;;;;;;;;12.10;99.90;;;;;;5000742;28;19932;-69
2021/09/19 05:25:12;;;;;;;;;;;12.10;99.90;;;;;;5005438;28;19931;-69
2021/09/19 05:27:39;;;;;;;;;;;12.10;99.90;;;;;;5000550;28;19955;-71
2021/09/19 05:30:06;;;;;;;;;;;12.10;99.90;;;;;;5004000;28;20044;-71
2021/09/19 05:32:32;;;;;;;;;;;12.10;99.90;;;;;;5004664;28;19931;-68
2021/09/19 05:34:59;;;;;;;;;;;12.10;99.90;;;;;;5002015;28;20044;-69
2021/09/19 05:37:26;;;;;;;;;;;12.10;99.90;;;;;;4994171;28;20029;-70
2021/09/19 05:39:52;;;;;;;;;;;12.10;99.90;;;;;;5005105;28;20029;-69
2021/09/19 05:42:20;;;;;;;;;;;12.10;99.90;;;;;;5000019;28;19947;-70
2021/09/19 05:44:47;;;;;;;;;;;12.10;99.90;;;;;;5004807;28;19953;-69
2021/09/19 05:47:14;;;;;;;;;;;12.10;99.90;;;;;;5007993;28;19933;-69
2021/09/19 05:49:40;;;;;;;;;;;12.10;99.90;;;;;;5001281;28;19926;-69
2021/09/19 05:52:07;;;;;;;;;;;12.20;99.90;;;;;;5007266;28;20012;-69
2021/09/19 05:54:34;;;;;;;;;;;12.20;99.90;;;;;;5006557;28;19926;-69
2021/09/19 05:57:00;;;;;;;;;;;12.20;99.90;;;;;;5006352;28;19982;-70
2021/09/19 05:59:28;;;;;;;;;;;12.20;99.90;;;;;;5001987;28;19947;-69
2021/09/19 06:01:55;;;;;;;;;;;12.20;99.90;;;;;;5002460;28;19933;-69
2021/09/19 06:04:23;;;;;;;;;;;12.20;99.90;;;;;;5002597;28;19925;-69
2021/09/19 06:06:49;;;;;;;;;;;12.20;99.90;;;;;;5003914;28;19929;-68
2021/09/19 06:09:16;;;;;;;;;;;12.20;99.90;;;;;;4997258;28;19934;-69
2021/09/19 06:11:43;;;;;;;;;;;12.30;99.90;;;;;;5009952;28;19925;-70
2021/09/19 06:14:10;;;;;;;;;;;12.30;99.90;;;;;;4998856;28;19926;-70
2021/09/19 06:16:38;;;;;;;;;;;12.30;99.90;;;;;;5007451;28;19926;-70
2021/09/19 06:19:04;;;;;;;;;;;12.40;99.90;;;;;;5004565;28;19940;-70
2021/09/19 06:21:31;;;;;;;;;;;12.40;99.90;;;;;;5003169;28;20287;-70
2021/09/19 06:23:58;;;;;;;;;;;12.40;99.90;;;;;;5004313;28;19930;-71
2021/09/19 06:26:24;;;;;;;;;;;12.40;99.90;;;;;;5007539;28;19940;-71
2021/09/19 06:28:51;;;;;;;;;;;12.50;99.90;;;;;;5005246;28;19932;-71
2021/09/19 06:31:18;;;;;;;;;;;12.50;99.90;;;;;;5001579;28;19927;-71
2021/09/19 06:33:46;;;;;;;;;;;12.50;99.90;;;;;;5016086;28;19925;-71
2021/09/19 06:36:13;;;;;;;;;;;12.50;99.90;;;;;;5002319;28;19933;-71
2021/09/19 06:38:40;;;;;;;;;;;12.50;99.90;;;;;;5003714;28;20028;-71
2021/09/19 06:41:06;;;;;;;;;;;12.50;99.90;;;;;;4994629;23;20020;-70
2021/09/19 06:43:33;;;;;;;;;;;12.50;99.90;;;;;;4936404;28;20014;-70
2021/09/19 06:46:00;;;;;;;;;;;12.60;99.90;;;;;;4942591;28;19936;-71
2021/09/19 06:48:26;;;;;;;;;;;12.60;99.90;;;;;;4939376;28;19969;-71
2021/09/19 06:50:54;;;;;;;;;;;12.70;99.90;;;;;;4936454;28;19927;-71
2021/09/19 06:53:21;;;;;;;;;;;12.80;99.90;;;;;;4933628;28;19950;-71
2021/09/19 06:55:48;;;;;;;;;;;12.90;99.90;;;;;;4944146;28;19931;-71
2021/09/19 06:58:14;;;;;;;;;;;12.90;99.90;;;;;;4946792;28;19926;-71
2021/09/19 07:00:41;;;;;;;;;;;13.00;99.90;;;;;;4937652;28;19935;-71
2021/09/19 07:03:08;;;;;;;;;;;13.10;99.90;;;;;;4950024;28;20021;-71
2021/09/19 07:05:34;;;;;;;;;;;13.30;99.90;;;;;;4936556;28;20042;-71
2021/09/19 07:08:02;;;;;;;;;;;13.10;99.90;;;;;;4928574;28;20023;-71
2021/09/19 07:10:29;;;;;;;;;;;13.20;99.90;;;;;;4927472;28;19934;-71
2021/09/19 07:12:56;;;;;;;;;;;13.30;99.90;;;;;;4927217;28;21364;-79
2021/09/19 07:15:22;;;;;;;;;;;13.20;99.90;;;;;;4925357;29;20270;-78
2021/09/19 07:17:49;;;;;;;;;;;13.30;99.90;;;;;;4926453;29;20041;-77
2021/09/19 07:20:16;;;;;;;;;;;13.30;99.90;;;;;;4927476;28;20021;-75
2021/09/19 07:22:46;;;;;;;;;;;13.30;99.90;;;;;;4927954;29;19964;-77
2021/09/19 07:25:15;;;;;;;;;;;13.30;99.90;;;;;;4927204;29;19927;-77
2021/09/19 07:27:42;;;;;;;;;;;13.30;99.90;;;;;;4926626;29;19933;-77
2021/09/19 07:30:10;;;;;;;;;;;13.40;99.90;;;;;;4927701;29;20030;-77
2021/09/19 07:32:37;;;;;;;;;;;13.50;99.90;;;;;;4927978;28;20013;-79
2021/09/19 07:35:03;;;;;;;;;;;13.60;99.90;;;;;;4928087;29;19927;-79
2021/09/19 07:37:31;;;;;;;;;;;13.80;99.90;;;;;;4926582;28;19927;-77
2021/09/19 07:39:58;;;;;;;;;;;14.00;99.90;;;;;;4926744;28;19941;-77
2021/09/19 07:42:26;;;;;;;;;;;14.40;99.90;;;;;;4924214;29;19927;-80
2021/09/19 07:44:55;;;;;;;;;;;14.70;99.90;;;;;;4921475;28;20048;-79
2021/09/19 07:47:29;;;;;;;;;;;14.80;99.90;;;;;;4923430;29;19935;-79
2021/09/19 07:49:56;;;;;;;;;;;15.00;99.90;;;;;;4926281;28;20290;-78
2021/09/19 07:52:23;;;;;;;;;;;15.20;99.90;;;;;;4925265;28;19927;-78
2021/09/19 07:54:54;;;;;;;;;;;15.10;99.90;;;;;;4927431;29;19982;-80
2021/09/19 07:57:20;;;;;;;;;;;15.00;99.90;;;;;;4924378;29;20526;-77
2021/09/19 07:59:48;;;;;;;;;;;14.90;99.90;;;;;;4927205;28;19953;-79
2021/09/19 08:02:15;;;;;;;;;;;14.90;99.90;;;;;;4925519;28;19927;-78
2021/09/19 08:04:42;;;;;;;;;;;15.00;99.90;;;;;;4929194;28;20022;-79
2021/09/19 08:07:08;;;;;;;;;;;15.20;99.90;;;;;;4923843;28;19931;-79
2021/09/19 08:09:35;;;;;;;;;;;16.20;99.90;;;;;;4941948;28;19966;-80
2021/09/19 08:12:02;;;;;;;;;;;16.90;99.90;;;;;;4944788;28;20025;-77
2021/09/19 08:14:29;;;;;;;;;;;17.20;99.90;;;;;;4922422;29;20021;-78
2021/09/19 08:16:57;;;;;;;;;;;16.60;99.90;;;;;;4926928;28;19933;-78
2021/09/19 08:19:24;;;;;;;;;;;15.90;99.90;;;;;;4928438;29;19927;-79
2021/09/19 08:21:51;;;;;;;;;;;15.50;99.90;;;;;;4932792;28;20379;-80
2021/09/19 08:24:17;;;;;;;;;;;15.50;99.90;;;;;;4929624;28;20009;-78
2021/09/19 08:26:44;;;;;;;;;;;15.60;99.90;;;;;;4925411;28;20390;-79
2021/09/19 08:29:11;;;;;;;;;;;16.20;99.90;;;;;;4927360;29;20014;-78
2021/09/19 08:31:38;;;;;;;;;;;16.60;99.90;;;;;;4921979;29;19933;-77
2021/09/19 08:34:07;;;;;;;;;;;16.70;99.90;;;;;;4926667;28;20026;-79
2021/09/19 08:36:34;;;;;;;;;;;16.60;99.90;;;;;;4923224;28;19933;-78
2021/09/19 08:39:01;;;;;;;;;;;16.60;99.90;;;;;;4922095;29;20308;-77
2021/09/19 08:41:28;;;;;;;;;;;16.40;99.90;;;;;;4927457;28;19969;-76
2021/09/19 08:43:54;;;;;;;;;;;16.60;99.90;;;;;;4933204;28;20009;-76
2021/09/19 08:46:22;;;;;;;;;;;16.90;99.90;;;;;;4925599;28;20397;-77
2021/09/19 08:48:49;;;;;;;;;;;17.20;99.90;;;;;;4925098;29;19927;-76
2021/09/19 08:51:17;;;;;;;;;;;17.60;99.90;;;;;;4927246;29;20001;-76
2021/09/19 08:53:44;;;;;;;;;;;17.90;99.90;;;;;;4923423;28;20304;-76
2021/09/19 08:56:11;;;;;;;;;;;18.50;99.90;;;;;;4926853;29;20353;-78
2021/09/19 08:58:38;;;;;;;;;;;19.40;99.90;;;;;;4923704;29;20292;-79
2021/09/19 09:01:06;;;;;;;;;;;19.90;99.90;;;;;;4927037;29;19931;-76
2021/09/19 09:03:33;;;;;;;;;;;19.60;99.90;;;;;;4926002;29;19935;-79
2021/09/19 09:06:01;;;;;;;;;;;19.20;99.90;;;;;;4924595;28;20025;-79
2021/09/19 09:08:41;;;;;;;;;;;19.40;99.90;;;;;;4926497;29;19927;-82
2021/09/19 09:11:09;;;;;;;;;;;19.90;99.90;;;;;;4929460;28;20034;-76
2021/09/19 09:13:37;;;;;;;;;;;20.20;99.90;;;;;;4922781;29;20029;-78
2021/09/19 09:16:05;;;;;;;;;;;20.40;99.90;;;;;;4924365;29;19973;-78
2021/09/19 09:18:33;;;;;;;;;;;20.70;99.90;;;;;;4924994;28;19933;-78
2021/09/19 09:21:01;;;;;;;;;;;21.00;99.90;;;;;;4927865;29;20316;-78
2021/09/19 09:23:30;;;;;;;;;;;21.40;99.90;;;;;;4926787;29;20420;-79
2021/09/19 09:26:11;;;;;;;;;;;21.80;99.90;;;;;;4928089;28;20946;-78
2021/09/19 09:28:42;;;;;;;;;;;22.10;99.90;;;;;;4925893;29;19946;-78
2021/09/19 09:31:09;;;;;;;;;;;22.10;99.90;;;;;;4954858;28;20449;-83
2021/09/19 09:33:36;;;;;;;;;;;21.90;99.90;;;;;;4927669;29;20307;-79
2021/09/19 09:36:07;;;;;;;;;;;21.70;99.90;;;;;;4925027;29;19966;-79
2021/09/19 09:38:34;;;;;;;;;;;21.70;99.90;;;;;;4925083;28;20018;-78
2021/09/19 09:41:00;;;;;;;;;;;21.50;99.90;;;;;;4930084;28;19927;-81
2021/09/19 09:43:29;;;;;;;;;;;21.60;99.90;;;;;;4927199;28;19970;-78
2021/09/19 09:45:56;;;;;;;;;;;21.80;99.90;;;;;;4925307;29;19941;-80
2021/09/19 09:48:24;;;;;;;;;;;21.00;99.90;;;;;;4926293;29;20150;-81
2021/09/19 09:50:51;;;;;;;;;;;20.80;99.90;;;;;;4928334;29;20287;-80
2021/09/19 09:53:21;;;;;;;;;;;20.40;99.90;;;;;;4928472;28;19934;-80
2021/09/19 09:55:48;;;;;;;;;;;20.20;99.90;;;;;;4918511;29;20278;-79
2021/09/19 09:58:18;;;;;;;;;;;20.40;99.90;;;;;;4921567;28;19945;-79
2021/09/19 10:00:46;;;;;;;;;;;20.80;99.90;;;;;;4920535;28;19927;-79
2021/09/19 10:03:13;;;;;;;;;;;21.30;99.90;;;;;;4921999;28;20378;-79
2021/09/19 10:05:41;;;;;;;;;;;20.70;99.90;;;;;;4923632;28;19931;-80
2021/09/19 10:08:09;;;;;;;;;;;20.00;99.90;;;;;;4921966;28;19951;-78
2021/09/19 10:10:40;;;;;;;;;;;19.90;99.90;;;;;;4926751;29;19927;-79
2021/09/19 10:13:08;;;;;;;;;;;20.20;99.90;;;;;;4924587;28;19965;-78
2021/09/19 10:15:35;;;;;;;;;;;20.20;99.90;;;;;;4926372;29;19934;-77
2021/09/19 10:18:03;;;;;;;;;;;19.80;99.90;;;;;;4919697;29;20021;-77
2021/09/19 10:20:30;;;;;;;;;;;20.30;99.90;;;;;;4925610;29;19937;-77
2021/09/19 10:23:01;;;;;;;;;;;20.70;99.90;;;;;;4923960;28;19938;-77
2021/09/19 10:25:38;;;;;;;;;;;20.50;99.90;;;;;;4922948;29;20504;-76
2021/09/19 10:28:19;;;;;;;;;;;20.10;99.90;;;;;;4923227;29;19973;-79
2021/09/19 10:31:03;;;;;;;;;;;20.20;99.90;;;;;;4921629;28;19970;-81
2021/09/19 10:33:35;;;;;;;;;;;20.30;99.90;;;;;;4929310;28;19931;-78
2021/09/19 10:36:02;;;;;;;;;;;20.50;99.90;;;;;;4921856;28;19935;-78
2021/09/19 10:38:35;;;;;;;;;;;21.10;99.90;;;;;;4923976;29;19935;-78
2021/09/19 10:41:13;;;;;;;;;;;20.50;99.90;;;;;;4924573;28;19931;-79
2021/09/19 10:43:49;;;;;;;;;;;20.00;99.90;;;;;;4921228;28;19926;-76
2021/09/19 10:46:30;;;;;;;;;;;20.00;99.90;;;;;;4915570;29;20358;-79
2021/09/19 10:49:12;;;;;;;;;;;19.70;99.90;;;;;;4925340;28;20953;-78
2021/09/19 10:51:53;;;;;;;;;;;20.00;99.90;;;;;;4925943;28;19962;-78
2021/09/19 10:54:35;;;;;;;;;;;20.10;99.90;;;;;;4924973;29;20519;-77
2021/09/19 10:57:02;;;;;;;;;;;20.40;99.90;;;;;;4922764;28;19979;-77
2021/09/19 10:59:29;;;;;;;;;;;20.80;99.90;;;;;;4924204;28;19973;-78
2021/09/19 11:01:56;;;;;;;;;;;20.50;99.90;;;;;;4924748;28;20350;-77
2021/09/19 11:04:32;;;;;;;;;;;20.40;99.90;;;;;;4925996;28;19931;-78
2021/09/19 11:06:59;;;;;;;;;;;21.00;99.90;;;;;;4920311;28;19945;-78
2021/09/19 11:09:26;;;;;;;;;;;21.60;99.90;;;;;;4923393;28;19976;-78
2021/09/19 11:12:17;;;;;;;;;;;21.60;99.90;;;;;;4920072;28;19931;-78
2021/09/19 11:14:56;;;;;;;;;;;21.10;99.90;;;;;;4929691;28;19946;-81
2021/09/19 11:17:24;;;;;;;;;;;21.30;99.90;;;;;;4922409;28;20297;-81
2021/09/19 11:20:16;;;;;;;;;;;21.40;99.90;;;;;;4925028;28;19927;-80
2021/09/19 11:22:44;;;;;;;;;;;21.50;99.90;;;;;;4923504;29;19926;-79
2021/09/19 11:25:12;;;;;;;;;;;21.40;99.90;;;;;;4922256;28;20321;-79
2021/09/19 11:27:41;;;;;;;;;;;21.20;99.90;;;;;;4920965;28;20384;-79
2021/09/19 11:30:09;;;;;;;;;;;21.60;99.90;;;;;;4923917;28;19978;-78
2021/09/19 11:32:36;;;;;;;;;;;21.30;99.90;;;;;;4922636;29;19926;-79
2021/09/19 11:35:05;;;;;;;;;;;21.20;99.90;;;;;;4922672;29;19981;-80
2021/09/19 11:37:31;;;;;;;;;;;21.80;99.90;;;;;;4921072;29;20298;-80
2021/09/19 11:39:59;;;;;;;;;;;22.50;98.90;;;;;;4923989;28;19927;-79
2021/09/19 11:42:28;;;;;;;;;;;23.20;97.60;;;;;;4919959;29;20409;-79
2021/09/19 11:44:56;;;;;;;;;;;21.70;98.50;;;;;;4924688;29;19977;-80
2021/09/19 11:47:23;;;;;;;;;;;21.60;99.90;;;;;;4925213;29;19927;-79
2021/09/19 11:49:52;;;;;;;;;;;21.40;99.90;;;;;;4928067;29;20009;-80
2021/09/19 11:52:21;;;;;;;;;;;21.70;98.90;;;;;;4925919;29;19973;-82
2021/09/19 11:54:48;;;;;;;;;;;22.20;97.30;;;;;;4926503;28;20389;-81
2021/09/19 11:57:15;;;;;;;;;;;21.80;98.60;;;;;;4929088;28;19930;-80
2021/09/19 11:59:42;;;;;;;;;;;22.20;98.70;;;;;;4923841;28;19927;-80
2021/09/19 12:02:09;;;;;;;;;;;21.80;98.90;;;;;;4932251;28;19927;-82
2021/09/19 12:04:36;;;;;;;;;;;21.50;99.80;;;;;;4934574;29;20017;-83
2021/09/19 12:07:04;;;;;;;;;;;21.30;99.90;;;;;;4925457;28;20523;-79
2021/09/19 12:09:32;;;;;;;;;;;21.20;99.50;;;;;;4923468;28;20037;-79
2021/09/19 12:12:12;;;;;;;;;;;21.50;99.50;;;;;;4919487;28;20392;-79
2021/09/19 12:14:43;;;;;;;;;;;21.50;98.80;;;;;;4920005;28;19930;-79
2021/09/19 12:17:11;;;;;;;;;;;21.40;98.70;;;;;;4921459;28;20297;-77
2021/09/19 12:19:39;;;;;;;;;;;21.60;98.10;;;;;;4923976;28;19967;-74
2021/09/19 12:22:06;;;;;;;;;;;21.40;98.00;;;;;;4925824;29;20475;-79
2021/09/19 12:24:36;;;;;;;;;;;21.70;98.20;;;;;;4926205;28;20025;-79
2021/09/19 12:27:13;;;;;;;;;;;22.00;97.70;;;;;;4925774;28;20389;-80
2021/09/19 12:29:40;;;;;;;;;;;21.80;98.20;;;;;;4923728;28;19926;-79
2021/09/19 12:32:06;;;;;;;;;;;22.10;97.30;;;;;;4924669;29;19927;-80
2021/09/19 12:34:33;;;;;;;;;;;21.80;97.10;;;;;;4925234;29;19973;-81
2021/09/19 12:37:00;;;;;;;;;;;21.80;97.80;;;;;;4926834;28;20022;-80
2021/09/19 12:39:28;;;;;;;;;;;21.60;97.10;;;;;;4922923;29;19937;-80
2021/09/19 12:41:57;;;;;;;;;;;21.40;98.20;;;;;;4923097;28;19927;-80
2021/09/19 12:44:24;;;;;;;;;;;21.40;97.70;;;;;;4923782;29;19927;-81
2021/09/19 12:46:52;;;;;;;;;;;21.70;97.70;;;;;;4923764;29;19973;-80
2021/09/19 12:49:19;;;;;;;;;;;21.70;98.30;;;;;;4921799;29;19943;-78
2021/09/19 12:52:01;;;;;;;;;;;21.60;98.80;;;;;;4922691;29;20494;-78
2021/09/19 12:54:27;;;;;;;;;;;21.90;98.20;;;;;;4924885;28;20417;-77
2021/09/19 12:56:55;;;;;;;;;;;22.20;97.10;;;;;;4929344;29;20320;-80
2021/09/19 12:59:22;;;;;;;;;;;21.80;97.70;;;;;;4928616;29;19933;-77
2021/09/19 13:01:49;;;;;;;;;;;21.50;98.80;;;;;;4922977;28;19989;-82
2021/09/19 13:04:16;;;;;;;;;;;21.70;98.40;;;;;;4926169;28;19927;-79
2021/09/19 13:06:42;;;;;;;;;;;21.40;99.30;;;;;;4927483;29;20231;-81
2021/09/19 13:09:09;;;;;;;;;;;21.50;99.00;;;;;;4929704;28;20330;-82
2021/09/19 13:11:36;;;;;;;;;;;21.90;97.80;;;;;;4920619;29;19926;-80
2021/09/19 13:14:04;;;;;;;;;;;22.40;97.90;;;;;;4928922;29;19931;-80
2021/09/19 13:16:31;;;;;;;;;;;22.60;97.20;;;;;;4929907;28;19927;-79
2021/09/19 13:18:58;;;;;;;;;;;22.20;97.00;;;;;;4925907;28;20017;-80
2021/09/19 13:21:25;;;;;;;;;;;22.00;97.90;;;;;;4927913;29;19927;-80
2021/09/19 13:23:51;;;;;;;;;;;22.20;98.20;;;;;;4927716;29;19933;-82
2021/09/19 13:26:18;;;;;;;;;;;22.00;97.50;;;;;;4936649;28;20017;-79
2021/09/19 13:28:45;;;;;;;;;;;22.00;97.60;;;;;;4929297;29;20013;-78
2021/09/19 13:31:13;;;;;;;;;;;22.60;97.00;;;;;;4926883;28;19931;-81
2021/09/19 13:33:40;;;;;;;;;;;23.20;95.60;;;;;;4926638;28;20014;-81
2021/09/19 13:36:06;;;;;;;;;;;22.70;95.90;;;;;;4924118;29;19926;-81
2021/09/19 13:38:33;;;;;;;;;;;22.80;95.20;;;;;;4925240;28;20018;-80
2021/09/19 13:41:00;;;;;;;;;;;22.90;95.70;;;;;;4926007;28;19933;-81
2021/09/19 13:43:26;;;;;;;;;;;23.20;95.20;;;;;;4921246;28;19933;-80
2021/09/19 13:45:53;;;;;;;;;;;23.20;94.90;;;;;;4927462;28;19927;-81
2021/09/19 13:48:21;;;;;;;;;;;23.10;94.80;;;;;;4928144;29;22406;-80
2021/09/19 13:50:48;;;;;;;;;;;22.60;95.50;;;;;;4931120;29;19966;-79
2021/09/19 13:53:14;;;;;;;;;;;22.40;95.30;;;;;;4924048;29;19927;-79
2021/09/19 13:55:41;;;;;;;;;;;22.40;95.30;;;;;;4931500;28;19935;-79
2021/09/19 13:58:09;;;;;;;;;;;22.30;95.80;;;;;;4930314;29;19931;-78
2021/09/19 14:00:36;;;;;;;;;;;21.90;96.40;;;;;;4927916;29;20018;-78
2021/09/19 14:03:02;;;;;;;;;;;21.60;97.50;;;;;;4922301;28;19931;-78
2021/09/19 14:05:30;;;;;;;;;;;21.40;97.70;;;;;;4923061;29;20021;-79
2021/09/19 14:07:57;;;;;;;;;;;21.30;97.10;;;;;;4926001;28;19949;-79
2021/09/19 14:10:24;;;;;;;;;;;21.30;96.60;;;;;;4926552;28;19986;-79
2021/09/19 14:12:50;;;;;;;;;;;21.20;97.40;;;;;;4923553;29;19927;-79
2021/09/19 14:15:17;;;;;;;;;;;21.30;96.70;;;;;;4928788;28;20013;-79
2021/09/19 14:17:44;;;;;;;;;;;21.40;96.30;;;;;;4924288;28;19931;-79
2021/09/19 14:20:12;;;;;;;;;;;21.50;95.80;;;;;;4927775;28;19927;-79